Time;durP1;ratioP1;P1;durP2;ratioP2;P2;SDS_P1;SDS_P2;PMS_P1;PMS_P2;Temp;Humidity;BMP_temperature;BMP_pressure;BME280_temperature;BME280_humidity;BME280_pressure;Samples;Min_cycle;Max_cycle;Signal;HPM_P1;HPM_P2
2024/01/15 00:01:07;;;;;;;24.90;13.60;;;;;;;1.28;100.00;98289.00;214365;1288;139897;-88
2024/01/15 00:06:08;;;;;;;22.80;12.40;;;;;;;1.28;100.00;98277.75;214834;1284;139017;-89
2024/01/15 00:11:08;;;;;;;24.40;13.00;;;;;;;1.25;100.00;98267.96;213989;1291;139673;-88
2024/01/15 00:16:09;;;;;;;26.20;13.50;;;;;;;1.20;100.00;98259.30;214640;1289;139519;-92
2024/01/15 00:21:10;;;;;;;20.40;11.30;;;;;;;1.16;100.00;98252.59;214352;1288;139999;-87
2024/01/15 00:26:10;;;;;;;24.60;12.20;;;;;;;1.10;100.00;98245.71;214600;1285;139033;-88
2024/01/15 00:31:11;;;;;;;22.10;12.40;;;;;;;1.05;100.00;98240.46;214316;1285;139190;-91
2024/01/15 00:36:11;;;;;;;23.60;11.70;;;;;;;1.01;100.00;98232.05;215423;1288;139417;-89
2024/01/15 00:41:12;;;;;;;22.10;11.80;;;;;;;0.98;100.00;98224.27;214878;1287;139580;-91
2024/01/15 00:46:12;;;;;;;27.10;12.60;;;;;;;0.97;100.00;98214.81;215567;1289;139014;-90
2024/01/15 00:51:13;;;;;;;27.10;13.60;;;;;;;0.97;100.00;98210.71;215066;1285;139649;-91
2024/01/15 00:56:14;;;;;;;26.90;14.20;;;;;;;0.97;100.00;98204.45;215292;1290;138583;-89
2024/01/15 01:01:14;;;;;;;24.90;12.00;;;;;;;0.98;100.00;98199.75;214762;1288;139800;-89
2024/01/15 01:06:15;;;;;;;25.60;13.30;;;;;;;0.98;100.00;98196.49;215442;1285;138722;-91
2024/01/15 01:11:16;;;;;;;29.50;15.00;;;;;;;0.98;100.00;98191.15;214303;1286;139995;-87
2024/01/15 01:16:16;;;;;;;28.00;14.20;;;;;;;0.97;100.00;98189.05;214495;1298;138715;-90
2024/01/15 01:21:17;;;;;;;29.30;14.00;;;;;;;0.96;100.00;98173.17;214262;1291;140729;-89
2024/01/15 01:26:19;;;;;;;27.70;13.70;;;;;;;0.93;100.00;98164.50;214934;1286;138395;-89
2024/01/15 01:31:19;;;;;;;32.10;14.10;;;;;;;0.91;100.00;98152.46;214279;1286;139811;-91
2024/01/15 01:36:19;;;;;;;26.40;13.80;;;;;;;0.89;100.00;98145.78;214950;1289;138665;-91
2024/01/15 01:41:20;;;;;;;26.80;13.80;;;;;;;0.89;100.00;98134.80;214434;1288;140664;-88
2024/01/15 01:46:20;;;;;;;25.60;13.30;;;;;;;0.88;100.00;98126.83;215013;1288;139155;-91
2024/01/15 01:51:24;;;;;;;27.90;13.40;;;;;;;0.87;100.00;98120.48;214597;1288;140558;-91
2024/01/15 01:56:26;;;;;;;29.80;13.50;;;;;;;0.88;100.00;98114.14;215033;1289;138637;-90
2024/01/15 02:01:27;;;;;;;29.30;14.70;;;;;;;0.89;100.00;98112.23;214867;1286;140115;-87
2024/01/15 02:06:28;;;;;;;26.30;13.90;;;;;;;0.90;100.00;98095.44;214827;1289;138707;-88
2024/01/15 02:11:28;;;;;;;27.90;14.10;;;;;;;0.90;100.00;98082.69;214436;1286;139473;-91
2024/01/15 02:16:28;;;;;;;26.00;12.60;;;;;;;0.90;100.00;98079.74;214757;1286;138516;-90
2024/01/15 02:21:31;;;;;;;24.90;12.10;;;;;;;0.91;100.00;98078.59;214279;1288;139653;-90
2024/01/15 02:26:35;;;;;;;31.60;13.70;;;;;;;0.92;100.00;98073.95;215059;1288;138331;-88
2024/01/15 02:31:36;;;;;;;25.90;12.70;;;;;;;0.93;100.00;98068.10;214421;1288;139970;-88
2024/01/15 02:36:37;;;;;;;23.50;11.70;;;;;;;0.94;100.00;98056.12;214868;1288;139122;-88
2024/01/15 02:41:37;;;;;;;25.00;12.30;;;;;;;0.95;100.00;98048.31;214866;1285;139948;-90
2024/01/15 02:46:37;;;;;;;22.70;12.90;;;;;;;0.95;100.00;98033.69;214952;1286;138665;-89
2024/01/15 02:51:38;;;;;;;24.10;11.80;;;;;;;0.95;100.00;98023.80;214548;1288;139758;-87
2024/01/15 02:56:38;;;;;;;26.30;14.00;;;;;;;0.96;100.00;98015.91;214824;1288;140284;-90
2024/01/15 03:01:39;;;;;;;22.90;12.60;;;;;;;0.97;100.00;98006.95;214209;1286;141265;-89
2024/01/15 03:06:39;;;;;;;25.20;12.80;;;;;;;0.97;100.00;98001.60;214841;1289;138574;-88
2024/01/15 03:11:43;;;;;;;23.40;12.70;;;;;;;0.97;100.00;97992.95;214240;1285;139676;-88
2024/01/15 03:16:43;;;;;;;26.10;12.30;;;;;;;0.96;100.00;97984.89;214986;1284;138610;-87
2024/01/15 03:21:44;;;;;;;24.90;11.60;;;;;;;0.93;100.00;97978.98;214222;1284;139282;-87
2024/01/15 03:26:44;;;;;;;28.70;13.60;;;;;;;0.90;100.00;97974.39;214408;1285;138568;-89
2024/01/15 03:31:45;;;;;;;29.30;17.00;;;;;;;0.87;100.00;97969.64;214492;1288;139503;-90
2024/01/15 03:36:45;;;;;;;26.40;14.20;;;;;;;0.83;100.00;97971.30;214785;1288;138657;-89
2024/01/15 03:41:45;;;;;;;30.30;15.10;;;;;;;0.82;100.00;97963.33;214205;1288;140011;-92
2024/01/15 03:46:46;;;;;;;30.00;15.80;;;;;;;0.79;100.00;97958.83;214656;1286;138687;-88
2024/01/15 03:51:47;;;;;;;23.60;11.90;;;;;;;0.78;100.00;97960.43;214301;1284;139703;-92
2024/01/15 03:56:47;;;;;;;26.20;11.60;;;;;;;0.77;100.00;97961.34;214847;1287;137600;-91
2024/01/15 04:01:51;;;;;;;26.20;13.50;;;;;;;0.75;100.00;97961.02;214234;1285;139734;-91
2024/01/15 04:06:51;;;;;;;27.90;12.30;;;;;;;0.75;100.00;97958.63;214786;1289;138712;-89
2024/01/15 04:11:52;;;;;;;23.20;10.80;;;;;;;0.75;100.00;97961.02;214157;1285;139581;-90
2024/01/15 04:16:53;;;;;;;22.20;11.60;;;;;;;0.74;100.00;97956.23;214658;1284;138553;-91
2024/01/15 04:21:53;;;;;;;21.60;10.40;;;;;;;0.73;100.00;97953.26;214522;1288;139878;-93
2024/01/15 04:26:54;;;;;;;19.60;9.40;;;;;;;0.74;100.00;97949.23;215097;1289;138337;-91
2024/01/15 04:31:54;;;;;;;21.60;10.00;;;;;;;0.73;100.00;97944.60;214466;1284;139272;-89
2024/01/15 04:36:55;;;;;;;20.60;9.80;;;;;;;0.73;100.00;97947.84;215437;1285;140058;-89
2024/01/15 04:41:56;;;;;;;16.60;8.50;;;;;;;0.73;100.00;97946.53;214811;1283;139434;-90
2024/01/15 04:46:56;;;;;;;17.70;8.50;;;;;;;0.72;100.00;97940.34;215649;1285;139377;-89
2024/01/15 04:51:57;;;;;;;19.20;7.70;;;;;;;0.74;100.00;97933.79;214605;1284;139539;-92
2024/01/15 04:56:58;;;;;;;13.90;6.40;;;;;;;0.75;100.00;97935.71;215222;1288;139518;-90
2024/01/15 05:01:58;;;;;;;13.40;5.90;;;;;;;0.75;100.00;97943.14;214900;1284;139286;-88
2024/01/15 05:06:59;;;;;;;15.00;6.90;;;;;;;0.73;100.00;97943.52;215232;1285;138357;-91
2024/01/15 05:11:59;;;;;;;14.80;6.80;;;;;;;0.74;100.00;97944.00;214596;1284;139373;-91
2024/01/15 05:17:00;;;;;;;11.90;5.10;;;;;;;0.75;100.00;97941.75;214912;1285;138754;-90
2024/01/15 05:22:00;;;;;;;14.90;6.30;;;;;;;0.75;100.00;97943.85;214282;1285;139114;-90
2024/01/15 05:27:01;;;;;;;16.60;7.10;;;;;;;0.76;100.00;97943.55;214597;1285;137999;-91
2024/01/15 05:32:01;;;;;;;14.20;6.10;;;;;;;0.78;100.00;97938.15;214093;1285;140255;-90
2024/01/15 05:37:02;;;;;;;16.10;5.80;;;;;;;0.77;100.00;97936.14;214817;1285;138737;-88
2024/01/15 05:42:03;;;;;;;13.10;5.10;;;;;;;0.76;100.00;97931.77;214209;1287;139371;-89
2024/01/15 05:47:04;;;;;;;13.40;5.50;;;;;;;0.75;100.00;97934.34;214706;1286;138483;-90
2024/01/15 05:52:04;;;;;;;11.10;4.80;;;;;;;0.75;100.00;97930.77;214192;1284;139575;-90
2024/01/15 05:57:05;;;;;;;12.40;5.70;;;;;;;0.74;100.00;97922.89;214776;1284;96672;-90
2024/01/15 06:02:06;;;;;;;15.40;6.80;;;;;;;0.73;100.00;97923.88;214137;1285;138974;-91
2024/01/15 06:07:06;;;;;;;16.10;6.50;;;;;;;0.72;100.00;97919.54;214778;1288;138421;-90
2024/01/15 06:12:07;;;;;;;17.20;7.60;;;;;;;0.72;100.00;97913.65;214040;1285;139147;-86
2024/01/15 06:17:08;;;;;;;19.60;7.60;;;;;;;0.73;100.00;97908.41;214519;1285;138701;-89
2024/01/15 06:22:08;;;;;;;15.00;5.90;;;;;;;0.73;100.00;97909.88;214098;1284;139157;-87
2024/01/15 06:27:09;;;;;;;18.90;9.10;;;;;;;0.73;100.00;97906.48;214799;1284;96586;-90
2024/01/15 06:32:09;;;;;;;17.10;7.70;;;;;;;0.73;100.00;97910.56;214217;1285;140485;-88
2024/01/15 06:37:10;;;;;;;15.90;8.60;;;;;;;0.73;100.00;97908.49;214365;1285;138495;-87
2024/01/15 06:42:11;;;;;;;17.60;8.40;;;;;;;0.74;100.00;97906.95;214127;1284;139729;-90
2024/01/15 06:47:11;;;;;;;29.80;14.60;;;;;;;0.74;100.00;97899.38;214661;1285;138640;-89
2024/01/15 06:52:12;;;;;;;15.10;6.70;;;;;;;0.75;100.00;97903.86;213801;1285;139562;-87
2024/01/15 06:57:13;;;;;;;18.00;7.50;;;;;;;0.77;100.00;97914.55;214827;1285;107227;-87
2024/01/15 07:02:13;;;;;;;16.60;8.10;;;;;;;0.79;100.00;97910.31;214537;1284;139428;-88
2024/01/15 07:07:13;;;;;;;17.50;9.20;;;;;;;0.79;100.00;97920.77;214916;1284;138375;-90
2024/01/15 07:12:14;;;;;;;16.70;9.10;;;;;;;0.79;100.00;97919.61;214275;1288;139542;-89
2024/01/15 07:17:15;;;;;;;19.70;8.40;;;;;;;0.80;100.00;97931.06;214709;1286;138448;-89
2024/01/15 07:22:17;;;;;;;19.30;9.00;;;;;;;0.81;100.00;97938.04;214338;1284;139618;-90
2024/01/15 07:27:18;;;;;;;25.70;13.80;;;;;;;0.82;100.00;97941.05;214957;1289;96639;-89
2024/01/15 07:32:20;;;;;;;29.00;13.10;;;;;;;0.85;100.00;97935.98;214123;1286;309211;-90
2024/01/15 07:37:20;;;;;;;32.10;20.50;;;;;;;0.86;100.00;97936.21;214896;1285;138725;-88
2024/01/15 07:42:21;;;;;;;31.40;17.40;;;;;;;0.86;100.00;97936.29;214619;1285;139234;-88
2024/01/15 07:47:22;;;;;;;26.80;15.80;;;;;;;0.89;100.00;97933.46;215133;1288;138521;-90
2024/01/15 07:52:22;;;;;;;22.30;8.60;;;;;;;0.91;100.00;97924.42;214615;1288;139625;-87
2024/01/15 07:57:26;;;;;;;23.30;11.60;;;;;;;0.94;100.00;97915.70;215098;1283;96567;-92
2024/01/15 08:02:26;;;;;;;22.10;10.60;;;;;;;0.95;100.00;97918.52;214260;1284;139529;-90
2024/01/15 08:07:27;;;;;;;19.00;9.00;;;;;;;0.95;100.00;97918.97;215190;1285;139017;-89
2024/01/15 08:12:28;;;;;;;26.10;14.10;;;;;;;0.94;100.00;97911.00;214764;1285;139796;-87
2024/01/15 08:17:28;;;;;;;20.50;10.90;;;;;;;0.94;100.00;97911.92;215840;1288;139646;-88
2024/01/15 08:22:29;;;;;;;16.60;7.70;;;;;;;0.94;100.00;97905.19;215169;1285;139701;-86
2024/01/15 08:27:29;;;;;;;19.50;7.50;;;;;;;0.95;100.00;97913.55;215654;1285;97005;-87
2024/01/15 08:32:30;;;;;;;20.50;8.40;;;;;;;0.94;100.00;97902.02;214855;1288;139387;-88
2024/01/15 08:37:30;;;;;;;20.30;8.40;;;;;;;0.93;100.00;97905.19;214806;1285;138173;-90
2024/01/15 08:42:31;;;;;;;19.50;7.90;;;;;;;0.92;100.00;97903.95;214526;1284;139542;-87
2024/01/15 08:47:31;;;;;;;16.80;7.80;;;;;;;0.92;100.00;97909.98;214881;1284;138507;-87
2024/01/15 08:52:32;;;;;;;18.30;8.00;;;;;;;0.93;100.00;97906.19;214292;1284;139712;-88
2024/01/15 08:57:32;;;;;;;15.00;6.90;;;;;;;0.93;100.00;97903.71;214935;1285;96801;-87
2024/01/15 09:02:33;;;;;;;16.90;6.90;;;;;;;0.96;100.00;97894.92;214298;1285;139619;-87
2024/01/15 09:07:33;;;;;;;19.10;7.60;;;;;;;0.98;100.00;97890.90;214802;1285;138675;-89
2024/01/15 09:12:34;;;;;;;19.90;7.40;;;;;;;0.98;100.00;97891.45;214471;1285;139436;-87
2024/01/15 09:17:34;;;;;;;16.50;6.10;;;;;;;0.98;100.00;97899.71;214982;1285;138997;-87
2024/01/15 09:22:35;;;;;;;18.00;6.90;;;;;;;0.98;100.00;97905.60;214394;1285;139654;-89
2024/01/15 09:27:36;;;;;;;14.60;6.30;;;;;;;1.03;100.00;97913.15;215409;1284;96566;-88
2024/01/15 09:32:37;;;;;;;15.00;5.80;;;;;;;1.04;100.00;97918.97;215094;1286;139605;-87
2024/01/15 09:37:39;;;;;;;12.10;4.60;;;;;;;1.01;100.00;97919.55;215733;1285;139463;-87
2024/01/15 09:42:40;;;;;;;13.30;5.00;;;;;;;1.00;100.00;97927.60;215443;1285;139911;-88
2024/01/15 09:47:42;;;;;;;16.20;6.10;;;;;;;1.01;100.00;97926.70;215060;1288;138282;-87
2024/01/15 09:52:44;;;;;;;13.40;6.30;;;;;;;1.01;100.00;97911.52;214519;1285;139607;-87
2024/01/15 09:57:48;;;;;;;12.20;4.80;;;;;;;1.06;100.00;97910.64;215053;1286;98075;-88
2024/01/15 10:02:49;;;;;;;16.60;5.90;;;;;;;1.12;100.00;97905.56;215111;1288;139489;-88
2024/01/15 10:07:51;;;;;;;11.50;4.90;;;;;;;1.18;100.00;97912.81;215695;1285;138663;-88
2024/01/15 10:12:52;;;;;;;13.40;4.40;;;;;;;1.22;100.00;97918.95;214850;1285;139717;-89
2024/01/15 10:17:53;;;;;;;11.70;4.70;;;;;;;1.26;100.00;97922.00;214893;1285;138503;-88
2024/01/15 10:22:55;;;;;;;15.70;5.00;;;;;;;1.28;100.00;97922.80;214328;1285;139295;-89
2024/01/15 10:28:03;;;;;;;10.80;4.20;;;;;;;1.28;100.00;97923.86;214920;1284;105874;-89
2024/01/15 10:33:04;;;;;;;12.80;4.10;;;;;;;1.24;100.00;97920.81;214457;1288;140042;-87
2024/01/15 10:38:05;;;;;;;15.70;5.20;;;;;;;1.24;100.00;97916.95;215074;1285;138897;-87
2024/01/15 10:43:06;;;;;;;14.30;5.00;;;;;;;1.23;100.00;97917.57;214278;1285;139661;-87
2024/01/15 10:48:07;;;;;;;10.40;4.40;;;;;;;1.23;100.00;97918.95;214843;1285;138547;-87
2024/01/15 10:53:09;;;;;;;15.70;4.80;;;;;;;1.22;100.00;97910.66;214513;1288;139554;-87
2024/01/15 10:58:10;;;;;;;12.00;4.40;;;;;;;1.24;100.00;97908.91;214573;1285;138336;-86
2024/01/15 11:03:11;;;;;;;14.10;3.90;;;;;;;1.25;100.00;97912.46;214598;1284;140450;-86
2024/01/15 11:08:11;;;;;;;13.10;3.90;;;;;;;1.20;100.00;97916.92;214915;1284;139623;-86
2024/01/15 11:13:20;;;;;;;10.70;3.80;;;;;;;1.14;100.00;97915.02;214395;1288;139335;-87
2024/01/15 11:18:22;;;;;;;15.70;4.60;;;;;;;1.17;100.00;97913.66;214795;1284;138607;-87
2024/01/15 11:23:46;;;;;;;10.90;4.10;;;;;;;1.20;100.00;97910.27;214198;1288;140038;-87
2024/01/15 11:28:49;;;;;;;13.00;4.50;;;;;;;1.28;100.00;97902.67;214984;1285;138480;-87
2024/01/15 11:33:50;;;;;;;11.90;4.20;;;;;;;1.35;100.00;97895.98;214031;1285;139353;-86
2024/01/15 11:38:50;;;;;;;15.60;4.10;;;;;;;1.40;100.00;97888.80;214765;1285;138694;-90
2024/01/15 11:43:52;;;;;;;16.60;3.90;;;;;;;1.42;100.00;97890.45;213997;1285;139400;-86
2024/01/15 11:49:03;;;;;;;12.60;3.90;;;;;;;1.40;100.00;97898.57;214609;1289;138376;-89
2024/01/15 11:54:09;;;;;;;12.80;3.90;;;;;;;1.39;100.00;97888.58;214075;1285;140506;-87
2024/01/15 11:59:10;;;;;;;11.80;4.10;;;;;;;1.37;100.00;97879.96;214505;1284;138860;-89
2024/01/15 12:04:11;;;;;;;13.10;3.80;;;;;;;1.35;100.00;97877.02;214416;1284;139158;-85
2024/01/15 12:09:11;;;;;;;13.40;4.20;;;;;;;1.30;100.00;97876.98;214781;1285;96783;-88
2024/01/15 12:14:12;;;;;;;13.00;3.80;;;;;;;1.28;100.00;97873.48;214218;1288;139250;-88
2024/01/15 12:19:14;;;;;;;13.40;4.30;;;;;;;1.33;100.00;97863.77;214885;1287;138518;-89
2024/01/15 12:24:17;;;;;;;13.40;4.60;;;;;;;1.41;100.00;97858.47;214182;1285;139578;-87
2024/01/15 12:29:18;;;;;;;14.80;4.40;;;;;;;1.49;100.00;97854.02;214746;1284;139242;-87
2024/01/15 12:34:18;;;;;;;12.60;4.40;;;;;;;1.58;100.00;97854.08;214023;1285;140217;-89
2024/01/15 12:39:20;;;;;;;13.80;4.20;;;;;;;1.65;100.00;97845.21;214923;1284;96647;-89
2024/01/15 12:44:21;;;;;;;12.30;3.60;;;;;;;1.67;100.00;97851.11;214097;1285;140522;-86
2024/01/15 12:49:23;;;;;;;9.00;3.20;;;;;;;1.65;100.00;97862.17;214750;1289;139009;-85
2024/01/15 12:54:24;;;;;;;5.90;2.60;;;;;;;1.61;100.00;97877.86;214583;1288;139397;-88
2024/01/15 12:59:25;;;;;;;7.20;2.20;;;;;;;1.52;100.00;97884.94;214496;1285;138371;-88
2024/01/15 13:04:25;;;;;;;9.10;1.60;;;;;;;1.41;100.00;97861.02;213915;1285;138795;-88
2024/01/15 13:09:26;;;;;;;6.60;2.20;;;;;;;1.32;100.00;97854.16;214671;1284;97523;-88
2024/01/15 13:14:26;;;;;;;4.40;1.90;;;;;;;1.27;100.00;97857.15;214179;1286;139304;-88
2024/01/15 13:19:27;;;;;;;9.60;2.60;;;;;;;1.23;100.00;97854.64;214615;1283;138213;-88
2024/01/15 13:24:27;;;;;;;6.30;2.60;;;;;;;1.17;100.00;97864.05;214214;1287;139150;-90
2024/01/15 13:29:28;;;;;;;5.20;1.90;;;;;;;1.12;100.00;97902.70;214909;1288;138291;-90
2024/01/15 13:34:28;;;;;;;10.20;2.70;;;;;;;1.05;100.00;97895.45;214381;1288;139221;-88
2024/01/15 13:39:33;;;;;;;3.00;1.30;;;;;;;1.01;100.00;97900.30;214990;1288;110505;-89
2024/01/15 13:44:33;;;;;;;2.80;1.50;;;;;;;0.96;100.00;97900.02;214302;1284;140009;-87
2024/01/15 13:49:35;;;;;;;5.10;1.40;;;;;;;0.88;100.00;97909.16;215055;1288;138158;-88
2024/01/15 13:54:36;;;;;;;9.40;1.90;;;;;;;0.80;100.00;97890.14;214337;1288;139511;-86
2024/01/15 13:59:36;;;;;;;6.80;2.10;;;;;;;0.74;100.00;97888.94;215004;1285;138331;-88
2024/01/15 14:04:37;;;;;;;9.70;2.60;;;;;;;0.71;100.00;97887.14;214691;1285;139320;-85
2024/01/15 14:09:38;;;;;;;5.50;2.30;;;;;;;0.70;100.00;97894.61;214832;1285;95793;-85
2024/01/15 14:14:38;;;;;;;9.50;2.80;;;;;;;0.70;100.00;97896.25;214201;1284;138585;-84
2024/01/15 14:19:38;;;;;;;13.90;3.20;;;;;;;0.78;100.00;97896.93;214784;1285;138221;-86
2024/01/15 14:24:39;;;;;;;12.70;3.80;;;;;;;0.87;100.00;97892.37;213918;1285;139114;-87
2024/01/15 14:29:39;;;;;;;9.80;3.20;;;;;;;0.94;100.00;97888.04;214610;1285;138920;-86
2024/01/15 14:34:46;;;;;;;14.40;5.20;;;;;;;1.00;100.00;97893.09;213924;1284;139184;-86
2024/01/15 14:39:46;;;;;;;10.60;3.40;;;;;;;1.05;100.00;97919.36;214629;1283;138205;-84
2024/01/15 14:44:47;;;;;;;9.20;2.80;;;;;;;0.97;100.00;97931.21;214440;1285;140851;-85
2024/01/15 14:49:48;;;;;;;11.10;3.30;;;;;;;0.87;100.00;97948.20;214891;1285;139486;-85
2024/01/15 14:54:49;;;;;;;6.50;2.80;;;;;;;0.78;100.00;97951.45;214550;1285;140275;-85
2024/01/15 14:59:49;;;;;;;38.00;14.00;;;;;;;0.71;100.00;97974.52;214427;1285;139168;-85
2024/01/15 15:04:53;;;;;;;12.30;4.70;;;;;;;0.68;100.00;97979.73;214702;1288;138803;-85
2024/01/15 15:09:57;;;;;;;15.90;4.70;;;;;;;0.68;100.00;97992.02;214576;1285;139287;-86
2024/01/15 15:14:57;;;;;;;27.00;11.60;;;;;;;0.67;100.00;98004.86;214889;1285;138876;-86
2024/01/15 15:19:57;;;;;;;13.30;4.90;;;;;;;0.65;100.00;98017.82;214322;1285;141420;-88
2024/01/15 15:24:58;;;;;;;16.80;4.70;;;;;;;0.65;100.00;98031.34;215054;1288;138540;-86
2024/01/15 15:29:58;;;;;;;9.50;4.30;;;;;;;0.62;100.00;98042.08;214152;1288;139413;-87
2024/01/15 15:34:59;;;;;;;13.50;4.40;;;;;;;0.60;100.00;98047.45;214941;1283;138236;-86
2024/01/15 15:40:00;;;;;;;14.70;4.90;;;;;;;0.59;100.00;98061.75;214446;1285;139367;-87
2024/01/15 15:45:00;;;;;;;10.20;4.50;;;;;;;0.57;100.00;98072.33;214589;1285;139212;-87
2024/01/15 15:50:01;;;;;;;11.90;4.20;;;;;;;0.54;100.00;98079.63;214479;1288;139709;-85
2024/01/15 15:55:02;;;;;;;22.30;7.90;;;;;;;0.49;100.00;98087.91;214878;1290;138365;-85
2024/01/15 16:00:05;;;;;;;11.60;4.70;;;;;;;0.46;100.00;98098.84;214311;1286;139952;-85
2024/01/15 16:05:09;;;;;;;17.70;9.10;;;;;;;0.42;100.00;98102.11;214720;1284;138469;-87
2024/01/15 16:10:10;;;;;;;11.90;4.40;;;;;;;0.38;100.00;98106.63;214648;1288;139653;-88
2024/01/15 16:15:20;;;;;;;17.20;6.20;;;;;;;0.37;100.00;98111.77;215136;1283;97998;-88
2024/01/15 16:20:21;;;;;;;18.00;6.00;;;;;;;0.32;100.00;98121.67;214656;1288;139576;-88
2024/01/15 16:25:22;;;;;;;20.60;8.10;;;;;;;0.27;100.00;98128.34;215559;1288;139782;-88
2024/01/15 16:30:22;;;;;;;11.10;4.80;;;;;;;0.22;100.00;98118.84;215231;1285;140322;-88
2024/01/15 16:35:23;;;;;;;15.20;5.20;;;;;;;0.17;100.00;98127.48;215769;1288;139606;-89
2024/01/15 16:40:24;;;;;;;12.30;4.70;;;;;;;0.13;100.00;98135.08;214650;1285;140241;-89
2024/01/15 16:45:24;;;;;;;12.10;4.20;;;;;;;0.06;100.00;98140.77;214840;1286;97517;-89
2024/01/15 16:50:24;;;;;;;12.00;4.00;;;;;;;0.01;100.00;98152.50;214040;1289;138874;-89
2024/01/15 16:55:28;;;;;;;11.20;3.30;;;;;;;-0.04;100.00;98155.43;214641;1285;138880;-89
2024/01/15 17:18:43;;;;;;;11.50;3.80;;;;;;;-0.28;100.00;98211.32;216556;1284;138502;-96
2024/01/15 17:23:48;;;;;;;13.40;4.60;;;;;;;-0.32;100.00;98222.59;216197;1287;139458;-91
2024/01/15 17:28:55;;;;;;;9.80;3.70;;;;;;;-0.36;100.00;98242.05;216917;1285;138909;-94
2024/01/15 17:34:01;;;;;;;8.60;2.70;;;;;;;-0.40;100.00;98253.09;217071;1285;139214;-92
2024/01/15 17:39:31;;;;;;;10.60;3.80;;;;;;;-0.42;100.00;98264.02;216836;1283;139083;-96
2024/01/15 17:44:36;;;;;;;10.20;3.80;;;;;;;-0.42;100.00;98272.82;216268;1285;139287;-94
2024/01/15 17:49:47;;;;;;;10.10;3.50;;;;;;;-0.44;100.00;98277.71;217377;1285;138785;-95
2024/01/15 17:54:48;;;;;;;10.00;3.80;;;;;;;-0.48;100.00;98284.73;216498;1288;138741;-92
2024/01/15 17:59:48;;;;;;;10.80;2.60;;;;;;;-0.50;100.00;98299.20;216407;1285;139271;-93
2024/01/15 18:04:49;;;;;;;6.90;2.50;;;;;;;-0.55;100.00;98315.55;216525;1285;139737;-95
2024/01/15 18:09:49;;;;;;;9.20;3.40;;;;;;;-0.56;100.00;98326.48;216284;1286;139076;-91
2024/01/15 18:14:53;;;;;;;10.50;3.00;;;;;;;-0.55;100.00;98338.92;216163;1285;139216;-95
2024/01/15 18:19:54;;;;;;;10.40;3.00;;;;;;;-0.55;100.00;98336.15;215920;1286;139824;-90
2024/01/15 18:24:54;;;;;;;7.90;3.50;;;;;;;-0.58;100.00;98343.88;216287;1288;138936;-93
2024/01/15 18:29:56;;;;;;;11.00;2.90;;;;;;;-0.61;100.00;98349.83;215855;1284;139058;-92
2024/01/15 18:35:04;;;;;;;8.00;2.60;;;;;;;-0.65;100.00;98352.45;216681;1287;138836;-94
2024/01/15 18:40:10;;;;;;;10.40;3.30;;;;;;;-0.67;100.00;98362.14;215668;1288;140074;-94
2024/01/15 18:45:53;;;;;;;12.70;4.10;;;;;;;-0.68;100.00;98371.14;216155;1288;137592;-89
2024/01/15 18:51:23;;;;;;;9.40;2.90;;;;;;;-0.71;100.00;98374.46;216198;1285;140558;-92
2024/01/15 18:57:09;;;;;;;;;;;;;;;;;;;;;
2024/01/15 19:02:20;;;;;;;8.00;2.90;;;;;;;-0.77;100.00;98387.61;214844;1286;140461;-83
2024/01/15 19:07:20;;;;;;;11.80;4.70;;;;;;;-0.75;100.00;98396.20;215364;1288;139001;-84
2024/01/15 19:12:21;;;;;;;12.60;4.20;;;;;;;-0.76;100.00;98399.27;215578;1285;142853;-85
2024/01/15 19:17:22;;;;;;;18.10;6.20;;;;;;;-0.76;100.00;98409.71;215996;1288;138762;-86
2024/01/15 19:22:27;;;;;;;15.50;5.40;;;;;;;-0.75;100.00;98417.73;215285;1288;139414;-86
2024/01/15 19:27:27;;;;;;;13.70;4.90;;;;;;;-0.72;100.00;98426.59;215554;1285;138504;-85
2024/01/15 19:32:28;;;;;;;19.70;6.50;;;;;;;-0.72;100.00;98437.95;215179;1288;362644;-86
2024/01/15 19:37:28;;;;;;;30.00;13.30;;;;;;;-0.72;100.00;98447.45;216322;1285;138821;-84
2024/01/15 19:42:30;;;;;;;19.10;7.90;;;;;;;-0.72;100.00;98459.54;215468;1286;140253;-86
2024/01/15 19:47:32;;;;;;;13.50;5.20;;;;;;;-0.72;100.00;98464.95;216340;1290;139405;-86
2024/01/15 19:52:32;;;;;;;8.50;3.50;;;;;;;-0.71;100.00;98464.66;215332;1286;139757;-86
2024/01/15 19:57:33;;;;;;;10.40;4.00;;;;;;;-0.70;100.00;98472.64;215887;1288;107000;-86
2024/01/15 20:02:34;;;;;;;11.60;3.50;;;;;;;-0.68;100.00;98486.42;215279;1287;139998;-85
2024/01/15 20:07:36;;;;;;;11.70;3.00;;;;;;;-0.68;100.00;98493.22;215937;1286;139752;-85
2024/01/15 20:12:38;;;;;;;12.80;3.80;;;;;;;-0.67;100.00;98516.47;215299;1286;140236;-86
2024/01/15 20:17:39;;;;;;;8.10;3.20;;;;;;;-0.66;100.00;98527.66;215907;1287;138992;-85
2024/01/15 20:22:39;;;;;;;8.80;2.90;;;;;;;-0.66;100.00;98530.67;214993;1288;140972;-85
2024/01/15 20:27:40;;;;;;;8.90;2.60;;;;;;;-0.64;100.00;98536.73;215964;1285;96524;-85
2024/01/15 20:32:40;;;;;;;7.80;2.70;;;;;;;-0.65;100.00;98544.66;215321;1290;139401;-85
2024/01/15 20:37:41;;;;;;;9.10;3.00;;;;;;;-0.64;100.00;98550.57;215846;1287;138882;-85
2024/01/15 20:42:41;;;;;;;12.00;4.20;;;;;;;-0.62;100.00;98552.84;215654;1287;140462;-86
2024/01/15 20:47:42;;;;;;;9.30;3.50;;;;;;;-0.63;100.00;98563.93;216119;1287;140006;-86
2024/01/15 20:52:42;;;;;;;13.10;4.10;;;;;;;-0.64;100.00;98570.63;215651;1288;140252;-85
2024/01/15 20:57:43;;;;;;;9.20;3.10;;;;;;;-0.64;100.00;98577.88;216152;1288;97916;-85
2024/01/15 21:02:44;;;;;;;8.40;2.60;;;;;;;-0.63;100.00;98588.26;215344;1290;139296;-86
2024/01/15 21:07:44;;;;;;;8.30;2.70;;;;;;;-0.62;100.00;98596.52;215957;1286;138829;-87
2024/01/15 21:12:45;;;;;;;5.40;2.10;;;;;;;-0.62;100.00;98609.34;215354;1286;139630;-86
2024/01/15 21:17:45;;;;;;;9.40;2.20;;;;;;;-0.63;100.00;98617.39;215869;1287;138763;-88
2024/01/15 21:22:46;;;;;;;9.90;2.80;;;;;;;-0.63;100.00;98623.07;215463;1285;139745;-88
2024/01/15 21:27:46;;;;;;;9.20;2.70;;;;;;;-0.63;100.00;98628.23;215814;1285;95532;-87
2024/01/15 21:32:47;;;;;;;8.10;2.40;;;;;;;-0.66;100.00;98630.77;215073;1285;139653;-87
2024/01/15 21:37:47;;;;;;;10.20;3.60;;;;;;;-0.69;100.00;98633.48;215730;1285;139116;-86
2024/01/15 21:42:48;;;;;;;8.90;2.30;;;;;;;-0.68;100.00;98642.05;215130;1286;141047;-88
2024/01/15 21:47:49;;;;;;;10.50;2.90;;;;;;;-0.68;100.00;98657.34;215630;1285;138662;-87
2024/01/15 21:52:49;;;;;;;6.70;2.70;;;;;;;-0.67;100.00;98666.00;215100;1290;139688;-87
2024/01/15 21:57:50;;;;;;;7.90;2.30;;;;;;;-0.67;100.00;98674.80;215633;1287;96689;-87
2024/01/15 22:02:50;;;;;;;9.00;3.80;;;;;;;-0.70;100.00;98675.95;215477;1288;140149;-87
2024/01/15 22:07:51;;;;;;;11.90;4.10;;;;;;;-0.72;100.00;98686.94;216100;1286;138652;-87
2024/01/15 22:12:51;;;;;;;10.30;3.50;;;;;;;-0.73;100.00;98696.41;215543;1290;140714;-86
2024/01/15 22:17:51;;;;;;;7.70;2.90;;;;;;;-0.75;100.00;98704.38;215862;1289;139794;-86
2024/01/15 22:22:52;;;;;;;8.30;2.30;;;;;;;-0.75;100.00;98705.31;215408;1288;139546;-87
2024/01/15 22:27:52;;;;;;;6.70;2.40;;;;;;;-0.77;100.00;98711.70;215942;1290;97919;-87
2024/01/15 22:32:55;;;;;;;8.90;2.70;;;;;;;-0.80;100.00;98714.80;215405;1288;139401;-88
2024/01/15 22:37:56;;;;;;;8.60;1.90;;;;;;;-0.85;100.00;98715.20;215560;1288;138530;-88
2024/01/15 22:42:57;;;;;;;14.10;2.10;;;;;;;-0.85;100.00;98718.04;214857;1290;138697;-89
2024/01/15 22:47:58;;;;;;;4.60;1.90;;;;;;;-0.87;100.00;98724.58;215554;1286;138764;-87
2024/01/15 22:52:58;;;;;;;6.00;1.90;;;;;;;-0.88;100.00;98725.30;214981;1289;139697;-88
2024/01/15 22:57:58;;;;;;;3.80;1.90;;;;;;;-0.90;100.00;98729.45;216008;1290;96679;-87
2024/01/15 23:03:01;;;;;;;4.70;1.30;;;;;;;-0.95;100.00;98739.53;215871;1286;139535;-86
2024/01/15 23:08:01;;;;;;;5.90;1.60;;;;;;;-0.97;100.00;98752.65;216301;1286;138968;-86